Time;durP1;ratioP1;P1;durP2;ratioP2;P2;SDS_P1;SDS_P2;PMS_P1;PMS_P2;Temp;Humidity;BMP_temperature;BMP_pressure;BME280_temperature;BME280_humidity;BME280_pressure;Samples;Min_cycle;Max_cycle;Signal;HPM_P1;HPM_P2
2022/07/11 00:02:08;;;;;;;5.25;1.50;;;16.70;99.90;;;;;;5070610;28;20045;-48
2022/07/11 00:04:34;;;;;;;3.67;1.33;;;16.70;99.90;;;;;;5070356;28;20044;-50
2022/07/11 00:07:01;;;;;;;3.03;1.40;;;16.70;99.90;;;;;;5071215;28;20059;-46
2022/07/11 00:09:28;;;;;;;4.15;1.40;;;16.70;99.90;;;;;;5074241;28;20041;-50
2022/07/11 00:11:54;;;;;;;5.13;1.50;;;16.70;99.90;;;;;;5074437;28;20040;-52
2022/07/11 00:14:21;;;;;;;8.05;1.42;;;16.70;99.90;;;;;;5074201;28;20039;-48
2022/07/11 00:16:47;;;;;;;4.15;1.60;;;16.60;99.90;;;;;;5074468;28;20041;-47
2022/07/11 00:19:13;;;;;;;4.03;1.50;;;16.60;99.90;;;;;;5073855;28;20032;-50
2022/07/11 00:21:39;;;;;;;3.60;1.63;;;16.60;99.90;;;;;;5073971;28;20036;-49
2022/07/11 00:24:09;;;;;;;4.57;1.85;;;16.50;99.90;;;;;;5074185;28;20036;-51
2022/07/11 00:26:35;;;;;;;8.15;1.83;;;16.60;99.90;;;;;;5073460;28;20036;-52
2022/07/11 00:29:01;;;;;;;7.25;1.90;;;16.50;99.90;;;;;;5073905;28;20189;-46
2022/07/11 00:31:26;;;;;;;4.78;1.83;;;16.50;99.90;;;;;;5073836;28;20119;-50
2022/07/11 00:33:52;;;;;;;3.95;1.60;;;16.60;99.90;;;;;;5074258;28;20073;-52
2022/07/11 00:36:18;;;;;;;10.15;1.95;;;16.50;99.90;;;;;;5073763;28;20033;-51
2022/07/11 00:38:43;;;;;;;5.30;1.70;;;16.50;99.90;;;;;;5073787;28;20641;-49
2022/07/11 00:41:10;;;;;;;4.93;2.00;;;16.60;99.90;;;;;;5074188;28;20040;-47
2022/07/11 00:43:38;;;;;;;3.85;1.80;;;16.50;99.90;;;;;;5073724;28;20088;-51
2022/07/11 00:46:05;;;;;;;5.07;1.80;;;16.50;99.90;;;;;;5073407;28;20055;-51
2022/07/11 00:48:31;;;;;;;4.07;1.75;;;16.50;99.90;;;;;;5073579;28;20105;-48
2022/07/11 00:50:57;;;;;;;3.90;1.67;;;16.40;99.90;;;;;;5073182;28;20484;-49
2022/07/11 00:53:24;;;;;;;3.80;1.60;;;16.50;99.90;;;;;;5038778;28;20224;-53
2022/07/11 00:55:53;;;;;;;3.60;1.40;;;16.40;99.90;;;;;;5073362;28;20039;-49
2022/07/11 00:58:19;;;;;;;3.30;1.70;;;16.40;99.90;;;;;;5071862;28;20060;-51
2022/07/11 01:00:45;;;;;;;5.60;2.10;;;16.50;99.90;;;;;;5072402;28;20127;-48
2022/07/11 01:03:11;;;;;;;3.05;1.50;;;16.40;99.90;;;;;;5073572;28;20456;-51
2022/07/11 01:05:37;;;;;;;3.17;1.58;;;16.40;99.90;;;;;;5073057;28;20127;-49
2022/07/11 01:08:03;;;;;;;4.20;1.83;;;16.40;99.90;;;;;;5073061;28;20411;-49
2022/07/11 01:10:29;;;;;;;3.60;1.65;;;16.40;99.90;;;;;;5073117;28;20025;-50
2022/07/11 01:12:55;;;;;;;4.82;1.60;;;16.40;99.90;;;;;;5073252;28;20039;-51
2022/07/11 01:15:20;;;;;;;3.80;1.70;;;16.30;99.90;;;;;;5073074;28;20036;-51
2022/07/11 01:17:46;;;;;;;4.15;1.80;;;16.30;99.90;;;;;;5073022;28;20041;-48
2022/07/11 01:20:12;;;;;;;4.60;1.80;;;16.30;99.90;;;;;;5038426;28;20048;-49
2022/07/11 01:22:49;;;;;;;2.63;1.73;;;16.10;99.90;;;;;;5072879;28;20068;-52
2022/07/11 01:25:29;;;;;;;3.50;1.60;;;16.20;99.90;;;;;;5072926;28;20051;-49
2022/07/11 01:27:59;;;;;;;6.28;2.45;;;16.20;99.90;;;;;;5072394;28;20079;-51
2022/07/11 01:30:27;;;;;;;3.35;1.88;;;16.20;99.90;;;;;;5072972;28;20396;-51
2022/07/11 01:32:53;;;;;;;2.72;1.73;;;16.10;99.90;;;;;;5072369;28;20132;-53
2022/07/11 01:35:20;;;;;;;4.28;1.58;;;16.10;99.90;;;;;;5073052;28;20115;-49
2022/07/11 01:37:45;;;;;;;3.97;1.92;;;16.20;99.90;;;;;;5072718;28;20040;-51
2022/07/11 01:40:11;;;;;;;4.15;2.10;;;16.10;99.90;;;;;;5072624;28;20028;-50
2022/07/11 01:42:37;;;;;;;4.90;2.28;;;16.10;99.90;;;;;;5053221;28;20452;-49
2022/07/11 01:45:03;;;;;;;6.38;2.55;;;16.20;99.90;;;;;;5072464;28;20389;-51
2022/07/11 01:47:29;;;;;;;5.78;2.05;;;16.10;99.90;;;;;;5071959;28;20123;-51
2022/07/11 01:49:55;;;;;;;5.07;2.28;;;16.10;99.90;;;;;;5072274;28;20124;-49
2022/07/11 01:52:21;;;;;;;3.50;1.98;;;16.10;99.90;;;;;;5072490;28;20051;-49
2022/07/11 01:54:47;;;;;;;5.05;1.90;;;16.20;99.90;;;;;;5072334;28;20040;-51
2022/07/11 01:57:13;;;;;;;5.30;2.10;;;16.10;99.90;;;;;;5071847;28;20486;-52
2022/07/11 01:59:39;;;;;;;5.45;2.00;;;16.10;99.90;;;;;;5072336;28;20420;-49
2022/07/11 02:02:05;;;;;;;5.60;2.40;;;16.10;99.90;;;;;;5072186;28;20036;-50
2022/07/11 02:04:31;;;;;;;5.72;2.25;;;16.00;99.90;;;;;;5072131;28;20487;-52
2022/07/11 02:06:57;;;;;;;4.35;2.40;;;16.00;99.90;;;;;;5072133;28;20040;-51
2022/07/11 02:09:22;;;;;;;4.35;2.30;;;16.00;99.90;;;;;;5072127;28;20089;-50
2022/07/11 02:11:48;;;;;;;5.68;2.70;;;16.10;99.90;;;;;;5071869;28;20044;-52
2022/07/11 02:14:14;;;;;;;7.68;2.60;;;16.00;99.90;;;;;;5072022;28;20040;-51
2022/07/11 02:16:40;;;;;;;5.10;2.80;;;16.00;99.90;;;;;;5071989;28;20081;-51
2022/07/11 02:19:06;;;;;;;5.47;2.42;;;16.00;99.90;;;;;;5071814;28;20160;-49
2022/07/11 02:21:32;;;;;;;5.45;3.10;;;16.00;99.90;;;;;;5071675;28;20111;-49
2022/07/11 02:23:58;;;;;;;5.97;2.83;;;16.00;99.90;;;;;;5071807;28;20487;-49
2022/07/11 02:26:24;;;;;;;5.28;2.80;;;16.00;99.90;;;;;;5071407;28;20184;-52
2022/07/11 02:28:50;;;;;;;4.90;2.60;;;16.00;99.90;;;;;;5071352;28;20440;-52
2022/07/11 02:31:15;;;;;;;5.75;2.38;;;16.00;99.90;;;;;;5071442;28;20032;-51
2022/07/11 02:33:41;;;;;;;6.28;2.72;;;16.00;99.90;;;;;;5071717;28;20028;-52
2022/07/11 02:36:07;;;;;;;6.47;2.83;;;16.00;99.90;;;;;;5071225;28;20029;-49
2022/07/11 02:38:36;;;;;;;7.32;2.80;;;15.80;99.90;;;;;;5071696;28;20100;-49
2022/07/11 02:41:02;;;;;;;5.03;2.75;;;15.80;99.90;;;;;;5071648;28;20101;-50
2022/07/11 02:43:28;;;;;;;7.50;3.10;;;15.80;99.90;;;;;;5071753;28;20032;-52
2022/07/11 02:45:55;;;;;;;5.25;2.45;;;15.80;99.90;;;;;;5071753;28;20094;-51
2022/07/11 02:48:20;;;;;;;5.80;2.88;;;15.80;99.90;;;;;;5071099;28;20040;-48
2022/07/11 02:50:47;;;;;;;7.88;3.08;;;15.90;99.90;;;;;;5071239;28;20150;-48
2022/07/11 02:53:13;;;;;;;7.20;2.72;;;15.80;99.90;;;;;;5071355;28;20544;-49
2022/07/11 02:55:39;;;;;;;6.95;2.97;;;15.70;99.90;;;;;;5071341;28;20066;-51
2022/07/11 02:58:05;;;;;;;5.70;2.67;;;15.70;99.90;;;;;;5071097;28;20045;-48
2022/07/11 03:00:31;;;;;;;5.05;2.80;;;15.80;99.90;;;;;;5053045;28;20076;-51
2022/07/11 03:02:56;;;;;;;6.40;3.28;;;15.60;99.90;;;;;;5071354;28;20115;-53
2022/07/11 03:05:22;;;;;;;9.15;3.50;;;15.60;99.90;;;;;;5070789;28;20120;-50
2022/07/11 03:07:48;;;;;;;6.00;3.22;;;15.60;99.90;;;;;;5071170;28;20127;-50
2022/07/11 03:10:14;;;;;;;9.80;3.50;;;15.60;99.90;;;;;;5036439;28;20072;-52
2022/07/11 03:12:41;;;;;;;9.30;3.70;;;15.80;99.90;;;;;;5071238;28;20097;-51
2022/07/11 03:15:08;;;;;;;8.05;3.08;;;15.70;99.90;;;;;;5070836;28;20036;-50
2022/07/11 03:17:35;;;;;;;8.32;3.08;;;15.80;99.90;;;;;;5070774;28;20042;-50
2022/07/11 03:20:02;;;;;;;7.85;3.22;;;15.70;99.90;;;;;;5070843;28;20047;-52
2022/07/11 03:22:27;;;;;;;6.72;4.00;;;15.70;99.90;;;;;;5070948;28;20032;-48
2022/07/11 03:24:53;;;;;;;10.35;3.92;;;15.60;99.90;;;;;;5071078;28;20044;-52
2022/07/11 03:27:19;;;;;;;9.75;4.10;;;15.70;99.90;;;;;;5051964;28;20045;-50
2022/07/11 03:29:44;;;;;;;6.18;3.90;;;15.60;99.90;;;;;;5070818;28;20097;-51
2022/07/11 03:32:10;;;;;;;8.10;3.72;;;15.60;99.90;;;;;;5070283;28;20394;-52
2022/07/11 03:34:36;;;;;;;6.72;3.65;;;15.60;99.90;;;;;;5052440;28;20039;-51
2022/07/11 03:37:02;;;;;;;7.00;3.90;;;15.50;99.90;;;;;;5052582;28;20040;-49
2022/07/11 03:39:28;;;;;;;6.60;3.58;;;15.60;99.90;;;;;;5052770;28;20039;-50
2022/07/11 03:41:54;;;;;;;7.45;3.70;;;15.70;99.90;;;;;;5070444;28;20033;-51
2022/07/11 03:44:20;;;;;;;7.80;3.78;;;15.70;99.90;;;;;;5070603;28;20121;-49
2022/07/11 03:46:45;;;;;;;7.80;3.97;;;15.80;99.90;;;;;;5070338;28;20029;-49
2022/07/11 03:49:11;;;;;;;7.95;3.47;;;15.70;99.90;;;;;;5070549;28;20047;-50
2022/07/11 03:51:37;;;;;;;11.75;4.35;;;15.80;99.90;;;;;;5052700;28;20591;-51
2022/07/11 03:54:03;;;;;;;6.72;3.53;;;15.70;99.90;;;;;;5068968;28;20033;-48
2022/07/11 03:56:29;;;;;;;8.50;3.78;;;15.70;99.90;;;;;;5069921;28;20084;-52
2022/07/11 03:58:55;;;;;;;7.15;3.88;;;15.70;99.90;;;;;;5070585;28;20087;-51
2022/07/11 04:01:20;;;;;;;8.93;4.43;;;15.70;99.90;;;;;;5070053;28;20043;-48
2022/07/11 04:03:47;;;;;;;6.15;4.00;;;15.60;99.90;;;;;;5070675;28;20487;-51
2022/07/11 04:06:13;;;;;;;6.25;3.60;;;15.70;99.90;;;;;;5070595;28;20037;-49
2022/07/11 04:08:39;;;;;;;8.60;3.78;;;15.70;99.90;;;;;;5070401;28;20045;-52
2022/07/11 04:11:05;;;;;;;6.03;4.13;;;15.80;99.90;;;;;;5070297;28;20032;-52
2022/07/11 04:13:31;;;;;;;8.98;3.83;;;15.80;99.90;;;;;;5070107;28;20036;-49
2022/07/11 04:15:57;;;;;;;8.10;4.28;;;15.70;99.90;;;;;;5070023;28;20032;-50
2022/07/11 04:18:23;;;;;;;7.70;4.20;;;15.90;99.90;;;;;;5070205;28;20043;-50
2022/07/11 04:20:49;;;;;;;8.20;4.53;;;15.80;99.90;;;;;;5069970;28;20041;-49
2022/07/11 04:23:15;;;;;;;5.82;3.70;;;15.70;99.90;;;;;;5070081;28;20115;-50
2022/07/11 04:25:41;;;;;;;7.25;3.90;;;15.90;99.90;;;;;;5070265;28;20130;-49
2022/07/11 04:28:07;;;;;;;7.47;3.92;;;15.80;99.90;;;;;;5069483;28;20037;-48
2022/07/11 04:30:33;;;;;;;8.30;4.00;;;16.00;99.90;;;;;;5052301;28;20029;-49
2022/07/11 04:32:59;;;;;;;7.20;3.38;;;15.90;99.90;;;;;;5052460;28;20041;-48
2022/07/11 04:35:27;;;;;;;5.75;2.90;;;15.80;99.90;;;;;;5070394;28;20037;-48
2022/07/11 04:37:53;;;;;;;4.55;2.65;;;15.80;99.90;;;;;;5070022;28;20048;-50
2022/07/11 04:40:20;;;;;;;5.45;2.30;;;15.80;99.90;;;;;;5069855;28;20045;-48
2022/07/11 04:42:46;;;;;;;5.38;2.70;;;15.90;99.90;;;;;;5052446;28;20071;-52
2022/07/11 04:45:12;;;;;;;4.35;2.15;;;15.80;99.90;;;;;;5070206;28;20444;-51
2022/07/11 04:47:38;;;;;;;5.53;2.45;;;15.90;99.90;;;;;;5051867;28;20492;-52
2022/07/11 04:50:04;;;;;;;9.27;3.53;;;15.80;99.90;;;;;;5052356;28;20396;-51
2022/07/11 04:52:30;;;;;;;9.13;3.00;;;15.90;99.90;;;;;;5070039;28;20032;-50
2022/07/11 04:54:56;;;;;;;6.55;3.30;;;15.70;99.90;;;;;;5073592;28;20171;-50
2022/07/11 04:57:21;;;;;;;5.90;2.65;;;15.80;99.90;;;;;;5072909;28;20056;-48
2022/07/11 04:59:47;;;;;;;6.07;2.25;;;15.80;99.90;;;;;;5073367;28;20048;-48
2022/07/11 05:02:13;;;;;;;7.28;2.53;;;16.00;99.90;;;;;;5073577;28;20036;-48
2022/07/11 05:04:38;;;;;;;6.57;2.65;;;15.90;99.90;;;;;;5073301;28;20043;-51
2022/07/11 05:07:04;;;;;;;8.95;3.47;;;15.90;99.90;;;;;;5073406;28;20115;-48
2022/07/11 05:09:30;;;;;;;9.85;2.97;;;16.00;99.90;;;;;;5055425;28;20041;-47
2022/07/11 05:11:56;;;;;;;7.80;2.67;;;15.90;99.90;;;;;;5073390;28;20463;-49
2022/07/11 05:14:21;;;;;;;6.60;2.47;;;16.10;99.90;;;;;;5073547;28;20093;-51
2022/07/11 05:16:47;;;;;;;5.25;2.00;;;16.00;99.90;;;;;;5073398;28;20468;-49
2022/07/11 05:19:13;;;;;;;4.78;1.95;;;16.30;99.90;;;;;;5073240;28;20388;-48
2022/07/11 05:21:38;;;;;;;3.95;1.63;;;16.30;99.90;;;;;;5073127;28;20051;-51
2022/07/11 05:24:04;;;;;;;3.53;1.67;;;16.40;99.90;;;;;;5073043;28;20050;-50
2022/07/11 05:26:30;;;;;;;6.72;2.28;;;16.40;99.90;;;;;;5054371;28;20097;-48
2022/07/11 05:28:56;;;;;;;6.05;2.28;;;16.30;99.90;;;;;;5072875;28;20054;-47
2022/07/11 05:31:22;;;;;;;6.32;2.20;;;16.50;99.90;;;;;;5072977;28;20037;-50
2022/07/11 05:33:48;;;;;;;3.88;1.95;;;16.50;99.90;;;;;;5054824;28;20047;-50
2022/07/11 05:36:14;;;;;;;5.05;2.05;;;16.60;99.90;;;;;;5055049;28;20036;-49
2022/07/11 05:38:39;;;;;;;3.50;1.73;;;16.50;99.90;;;;;;5072740;28;20072;-49
2022/07/11 05:41:05;;;;;;;4.18;1.30;;;16.40;99.90;;;;;;5072778;28;20450;-51
2022/07/11 05:43:31;;;;;;;2.47;1.15;;;16.50;99.90;;;;;;5072604;28;20044;-50
2022/07/11 05:45:56;;;;;;;4.35;1.70;;;16.60;99.90;;;;;;5072928;28;20040;-51
2022/07/11 05:48:22;;;;;;;3.08;1.10;;;16.70;99.90;;;;;;5072395;28;20049;-52
2022/07/11 05:50:48;;;;;;;2.30;0.93;;;16.70;99.90;;;;;;5072765;28;20048;-49
2022/07/11 05:53:14;;;;;;;2.42;0.90;;;16.60;99.90;;;;;;5072365;28;20089;-48
2022/07/11 05:55:40;;;;;;;2.33;0.70;;;16.80;99.90;;;;;;5072466;28;20116;-50
2022/07/11 05:58:06;;;;;;;4.43;0.95;;;16.60;99.90;;;;;;5072192;28;20143;-49
2022/07/11 06:00:32;;;;;;;4.55;1.40;;;16.80;99.90;;;;;;5072351;28;20089;-49
2022/07/11 06:02:58;;;;;;;6.57;1.75;;;16.70;99.90;;;;;;5071290;28;20069;-49
2022/07/11 06:05:23;;;;;;;3.42;1.27;;;16.80;99.90;;;;;;5050986;28;20044;-50
2022/07/11 06:10:33;;;;;;;4.88;1.10;;;16.80;99.90;;;;;;5063706;28;20086;-49
2022/07/11 06:12:59;;;;;;;3.53;1.30;;;16.90;99.90;;;;;;5064337;28;20037;-51
2022/07/11 06:15:25;;;;;;;4.15;1.27;;;16.90;99.90;;;;;;5063733;28;20437;-50
2022/07/11 06:17:51;;;;;;;3.53;0.93;;;17.20;99.90;;;;;;5060137;28;20482;-49
2022/07/11 06:20:17;;;;;;;2.55;1.00;;;17.10;99.90;;;;;;5059679;28;20139;-51
2022/07/11 06:22:42;;;;;;;1.60;0.80;;;16.90;99.90;;;;;;5064087;28;20029;-49
2022/07/11 06:25:09;;;;;;;2.20;0.77;;;17.00;99.90;;;;;;5063636;28;20044;-52
2022/07/11 06:27:35;;;;;;;3.20;1.00;;;16.90;99.90;;;;;;5063522;28;20831;-51
2022/07/11 06:30:01;;;;;;;3.22;0.95;;;17.00;99.90;;;;;;5063974;28;20051;-49
2022/07/11 06:32:28;;;;;;;1.40;0.68;;;16.90;99.90;;;;;;5064952;28;20029;-51
2022/07/11 06:34:53;;;;;;;3.03;0.70;;;17.00;99.90;;;;;;5069607;28;20123;-50
2022/07/11 06:37:19;;;;;;;2.13;0.73;;;16.90;99.90;;;;;;5069928;28;20167;-49
2022/07/11 06:39:45;;;;;;;1.40;0.60;;;17.00;99.90;;;;;;5070439;28;20040;-52
2022/07/11 06:42:10;;;;;;;1.98;0.70;;;17.00;99.90;;;;;;5071573;28;20097;-52
2022/07/11 06:44:36;;;;;;;2.40;0.93;;;17.00;99.90;;;;;;5071827;28;20090;-51
2022/07/11 06:47:02;;;;;;;2.30;0.90;;;17.10;99.90;;;;;;5071300;28;20028;-50
2022/07/11 06:49:28;;;;;;;2.70;0.85;;;17.10;99.90;;;;;;5053646;28;20082;-51
2022/07/11 06:51:53;;;;;;;3.00;0.82;;;17.20;99.90;;;;;;5071128;28;20044;-47
2022/07/11 06:54:19;;;;;;;4.63;0.70;;;17.30;99.90;;;;;;5053236;28;20038;-50
2022/07/11 06:56:44;;;;;;;2.13;0.88;;;17.40;99.90;;;;;;5070641;28;20145;-50
2022/07/11 06:59:10;;;;;;;1.48;0.57;;;17.50;99.90;;;;;;5071194;28;20110;-50
2022/07/11 07:01:36;;;;;;;1.90;0.70;;;17.40;99.90;;;;;;5071089;28;20039;-49
2022/07/11 07:04:01;;;;;;;3.63;0.73;;;17.40;99.90;;;;;;5053444;28;20028;-52
2022/07/11 07:06:27;;;;;;;2.65;0.80;;;17.40;99.90;;;;;;5070943;28;20041;-49
2022/07/11 07:08:53;;;;;;;3.83;0.88;;;17.40;99.90;;;;;;5070845;28;20040;-53
2022/07/11 07:11:19;;;;;;;3.00;0.80;;;17.30;99.90;;;;;;5053338;28;20384;-50
2022/07/11 07:13:45;;;;;;;1.73;0.68;;;17.30;99.90;;;;;;5070729;28;20105;-52
2022/07/11 07:16:11;;;;;;;2.75;0.80;;;17.30;99.90;;;;;;5070710;28;20094;-50
2022/07/11 07:18:40;;;;;;;3.97;0.90;;;17.40;99.90;;;;;;5071511;28;20052;-53
2022/07/11 07:21:06;;;;;;;2.80;0.70;;;17.30;99.90;;;;;;5055116;28;20040;-51
2022/07/11 07:23:32;;;;;;;1.75;0.60;;;17.20;99.90;;;;;;5047994;28;20368;-50
2022/07/11 07:25:58;;;;;;;2.50;0.70;;;17.20;99.90;;;;;;5063867;28;20043;-50
2022/07/11 07:28:23;;;;;;;2.55;0.57;;;17.30;99.90;;;;;;5060082;28;20040;-48
2022/07/11 07:30:49;;;;;;;2.92;0.55;;;17.30;99.90;;;;;;5050137;28;20117;-48
2022/07/11 07:33:15;;;;;;;8.40;1.40;;;17.50;99.90;;;;;;5061964;28;20041;-48
2022/07/11 07:35:41;;;;;;;8.20;1.45;;;17.50;99.90;;;;;;5062565;28;20040;-48
2022/07/11 07:38:07;;;;;;;4.22;0.90;;;17.50;99.90;;;;;;5062555;28;20040;-48
2022/07/11 07:40:32;;;;;;;2.80;0.65;;;17.60;99.90;;;;;;5061392;28;20071;-50
2022/07/11 07:42:59;;;;;;;4.47;1.05;;;17.70;99.90;;;;;;5062395;28;20037;-51
2022/07/11 07:45:24;;;;;;;1.80;0.60;;;17.80;99.90;;;;;;5046424;28;20041;-50
2022/07/11 07:47:50;;;;;;;1.42;0.40;;;17.80;99.90;;;;;;5062268;28;20408;-52
2022/07/11 07:50:16;;;;;;;1.63;0.50;;;17.90;99.90;;;;;;5061059;28;20534;-52
2022/07/11 07:52:41;;;;;;;1.17;0.45;;;17.90;99.90;;;;;;5043894;28;20089;-53
2022/07/11 07:55:08;;;;;;;1.08;0.43;;;18.00;99.90;;;;;;5060458;28;20089;-51
2022/07/11 07:57:34;;;;;;;1.75;0.57;;;18.10;99.90;;;;;;5059170;28;20056;-51
2022/07/11 08:02:44;;;;;;;1.33;0.60;;;18.10;99.90;;;;;;5047218;28;20564;-49
2022/07/11 08:05:10;;;;;;;1.52;0.40;;;18.10;99.90;;;;;;5061954;28;20060;-49
2022/07/11 08:07:36;;;;;;;3.95;0.60;;;18.30;99.90;;;;;;5062545;28;20036;-50
2022/07/11 08:10:05;;;;;;;2.40;0.90;;;18.50;99.90;;;;;;5061847;28;20040;-50
2022/07/11 08:12:30;;;;;;;1.85;0.50;;;18.60;99.90;;;;;;5058508;28;20483;-50
2022/07/11 08:14:56;;;;;;;2.15;0.32;;;18.60;99.90;;;;;;5043526;28;20033;-52
2022/07/11 08:17:22;;;;;;;0.93;0.38;;;18.70;99.90;;;;;;5060887;28;20046;-54
2022/07/11 08:19:47;;;;;;;1.20;0.60;;;18.40;99.90;;;;;;5062234;28;20044;-51
2022/07/11 08:22:13;;;;;;;1.42;0.40;;;18.30;99.90;;;;;;5062611;28;20517;-51
2022/07/11 08:24:38;;;;;;;2.10;0.68;;;18.20;99.90;;;;;;5045748;28;20040;-50
2022/07/11 08:27:04;;;;;;;3.92;1.05;;;18.10;99.90;;;;;;5044450;28;20401;-49
2022/07/11 08:29:30;;;;;;;1.88;0.70;;;17.90;99.90;;;;;;5065329;28;20373;-50
2022/07/11 08:31:55;;;;;;;1.02;0.30;;;17.90;99.90;;;;;;5064536;28;20115;-48
2022/07/11 08:34:21;;;;;;;0.65;0.40;;;17.90;99.90;;;;;;5065522;28;20036;-50
2022/07/11 08:36:47;;;;;;;0.63;0.28;;;17.90;99.90;;;;;;5064802;28;20192;-51
2022/07/11 08:39:12;;;;;;;2.13;0.30;;;18.00;99.90;;;;;;5046630;28;20088;-49
2022/07/11 08:41:43;;;;;;;1.25;0.43;;;18.10;99.90;;;;;;5064622;28;20080;-50
2022/07/11 08:44:08;;;;;;;2.63;0.35;;;18.20;99.90;;;;;;5065881;28;20049;-51
2022/07/11 08:46:35;;;;;;;0.80;0.40;;;18.40;99.90;;;;;;5049674;28;20028;-49
2022/07/11 08:49:02;;;;;;;1.80;0.50;;;18.40;99.90;;;;;;5062025;28;20154;-50
2022/07/11 08:51:28;;;;;;;1.38;0.50;;;18.70;99.90;;;;;;5063283;28;20032;-48
2022/07/11 08:53:54;;;;;;;0.63;0.30;;;18.80;99.90;;;;;;5063378;28;20033;-51
2022/07/11 08:56:21;;;;;;;1.90;0.38;;;18.80;99.90;;;;;;5062885;28;20494;-50
2022/07/11 08:58:48;;;;;;;0.98;0.30;;;18.80;99.90;;;;;;5063131;28;20049;-49
2022/07/11 09:01:16;;;;;;;0.90;0.28;;;18.90;99.90;;;;;;5064538;28;20147;-50
2022/07/11 09:03:43;;;;;;;1.13;0.40;;;18.70;99.90;;;;;;5065781;28;20044;-51
2022/07/11 09:06:10;;;;;;;2.63;0.40;;;18.70;99.90;;;;;;5065896;28;20066;-52
2022/07/11 09:08:36;;;;;;;1.73;0.40;;;18.70;99.90;;;;;;5064319;28;20131;-51
2022/07/11 09:11:04;;;;;;;2.15;0.50;;;18.80;99.90;;;;;;5065865;28;20115;-52
2022/07/11 09:13:30;;;;;;;2.08;0.70;;;18.80;99.90;;;;;;5065304;28;20040;-50
2022/07/11 09:16:04;;;;;;;0.75;0.30;;;18.90;99.90;;;;;;5065111;28;20103;-52
2022/07/11 09:18:35;;;;;;;1.52;0.40;;;19.00;99.90;;;;;;5064890;28;20080;-49
2022/07/11 09:26:37;;;;;;;0.75;0.30;;;19.20;99.90;;;;;;5064560;28;20568;-53
2022/07/11 09:29:04;;;;;;;0.47;0.20;;;19.10;99.90;;;;;;5064972;28;20039;-52
2022/07/11 09:31:34;;;;;;;0.68;0.32;;;18.80;99.90;;;;;;5064733;28;20040;-50
2022/07/11 09:34:02;;;;;;;0.75;0.25;;;18.70;99.90;;;;;;5062951;28;20051;-49
2022/07/11 09:36:42;;;;;;;0.75;0.30;;;18.70;99.90;;;;;;5063582;28;20048;-50
2022/07/11 09:39:11;;;;;;;1.58;0.35;;;18.80;99.90;;;;;;5061691;28;20462;-51
2022/07/11 09:41:37;;;;;;;0.95;0.30;;;18.80;99.90;;;;;;5063263;28;20036;-50
2022/07/11 09:44:10;;;;;;;1.27;0.52;;;19.00;99.90;;;;;;5064108;28;20060;-52
2022/07/11 09:46:36;;;;;;;1.02;0.30;;;18.90;99.90;;;;;;5063273;28;20426;-52
2022/07/11 09:49:02;;;;;;;1.60;0.40;;;19.00;99.90;;;;;;5063056;28;20032;-53
2022/07/11 09:51:28;;;;;;;1.27;0.22;;;19.30;99.90;;;;;;5063326;28;20110;-49
2022/07/11 09:53:59;;;;;;;0.93;0.40;;;19.40;99.90;;;;;;5063328;28;20051;-53
2022/07/11 09:56:54;;;;;;;0.98;0.30;;;19.40;99.90;;;;;;5062664;28;20685;-52
2022/07/11 09:59:22;;;;;;;0.38;0.30;;;19.40;99.90;;;;;;5050823;28;20107;-50
2022/07/11 10:01:47;;;;;;;2.50;0.30;;;19.30;99.90;;;;;;5063151;28;20557;-49
2022/07/11 10:04:13;;;;;;;1.42;0.40;;;19.40;99.90;;;;;;5063446;28;20048;-48
2022/07/11 10:06:39;;;;;;;0.85;0.40;;;19.40;99.90;;;;;;5063392;28;20530;-49
2022/07/11 10:09:05;;;;;;;0.73;0.28;;;19.50;99.90;;;;;;5063221;28;20053;-50
2022/07/11 10:11:32;;;;;;;1.02;0.40;;;19.40;99.90;;;;;;5063814;28;20088;-51
2022/07/11 10:14:04;;;;;;;0.93;0.30;;;19.30;99.90;;;;;;5062804;28;20056;-50
2022/07/11 10:17:08;;;;;;;1.17;0.40;;;19.30;99.90;;;;;;5061857;28;20479;-49
2022/07/11 10:19:48;;;;;;;0.82;0.35;;;19.30;99.90;;;;;;5040707;28;20040;-53
2022/07/11 10:22:48;;;;;;;1.75;0.40;;;19.20;99.90;;;;;;5064725;28;20044;-52
2022/07/11 10:25:24;;;;;;;1.50;0.60;;;19.20;99.90;;;;;;5037915;28;20040;-51
2022/07/11 10:28:13;;;;;;;2.72;0.47;;;19.20;99.90;;;;;;5066806;28;20207;-47
2022/07/11 10:30:49;;;;;;;0.77;0.20;;;19.30;99.90;;;;;;5067534;28;20074;-51
2022/07/11 10:33:16;;;;;;;0.73;0.32;;;19.40;99.90;;;;;;5068964;28;20032;-49
2022/07/11 10:35:44;;;;;;;1.00;0.30;;;19.50;99.90;;;;;;5050640;28;20032;-49
2022/07/11 10:38:10;;;;;;;0.98;0.40;;;19.70;99.90;;;;;;5069107;28;20437;-50
2022/07/11 10:41:09;;;;;;;0.47;0.30;;;19.70;99.90;;;;;;5052519;28;20045;-50
2022/07/11 10:43:40;;;;;;;0.40;0.20;;;19.90;99.90;;;;;;5065663;28;20048;-50
2022/07/11 10:46:19;;;;;;;0.55;0.20;;;20.00;99.90;;;;;;5069376;28;20403;-47
2022/07/11 10:48:59;;;;;;;1.05;0.32;;;20.10;99.90;;;;;;5068681;28;20048;-49
2022/07/11 10:51:34;;;;;;;1.15;0.40;;;20.20;99.90;;;;;;5068866;28;20040;-48
2022/07/11 10:54:13;;;;;;;3.20;0.40;;;20.10;99.90;;;;;;5069303;28;21142;-49
2022/07/11 10:56:58;;;;;;;0.45;0.25;;;20.10;99.90;;;;;;5067647;28;20053;-51
2022/07/11 10:59:24;;;;;;;1.83;0.70;;;19.90;99.90;;;;;;5067947;28;20047;-52
2022/07/11 11:02:14;;;;;;;2.20;0.95;;;20.10;99.90;;;;;;5060887;28;20040;-50
2022/07/11 11:04:59;;;;;;;2.17;0.98;;;20.20;99.90;;;;;;5063432;28;20044;-48
2022/07/11 11:07:40;;;;;;;0.98;0.40;;;20.10;99.90;;;;;;5068793;28;20102;-48
2022/07/11 11:10:18;;;;;;;1.00;0.40;;;20.20;99.90;;;;;;5068464;28;20037;-48
2022/07/11 11:13:06;;;;;;;1.25;0.32;;;20.30;99.90;;;;;;5068496;28;20056;-50
2022/07/11 11:15:45;;;;;;;1.30;0.40;;;20.50;99.90;;;;;;5051298;28;20041;-47
2022/07/11 11:18:23;;;;;;;1.55;0.50;;;20.40;99.90;;;;;;5066940;28;20123;-51
2022/07/11 11:21:00;;;;;;;0.40;0.20;;;20.50;99.90;;;;;;5067253;28;20157;-48
2022/07/11 11:23:32;;;;;;;0.73;0.22;;;20.50;99.90;;;;;;5066257;28;20085;-48
2022/07/11 11:26:07;;;;;;;1.00;0.20;;;20.60;99.90;;;;;;5068814;28;20742;-49
2022/07/11 11:28:34;;;;;;;0.88;0.35;;;20.60;99.90;;;;;;5066982;28;20577;-49
2022/07/11 11:31:04;;;;;;;1.08;0.20;;;20.50;99.90;;;;;;5067706;28;20041;-49
2022/07/11 11:33:36;;;;;;;0.55;0.30;;;20.50;99.90;;;;;;5066299;28;20040;-50
2022/07/11 11:36:04;;;;;;;0.95;0.30;;;20.50;99.90;;;;;;5059601;28;20108;-49
2022/07/11 11:38:34;;;;;;;0.30;0.20;;;20.40;99.90;;;;;;5043624;28;20074;-51
2022/07/11 11:41:00;;;;;;;0.52;0.25;;;20.50;99.90;;;;;;5047362;28;20115;-50
2022/07/11 11:43:26;;;;;;;0.38;0.20;;;20.60;99.90;;;;;;5064165;28;20049;-50
2022/07/11 11:45:53;;;;;;;0.32;0.20;;;20.60;99.90;;;;;;5066811;28;20044;-51
2022/07/11 11:48:34;;;;;;;1.00;0.40;;;20.40;99.90;;;;;;5069703;28;20045;-49
2022/07/11 11:51:07;;;;;;;1.33;0.40;;;20.60;99.90;;;;;;5067804;28;20043;-52
2022/07/11 11:53:53;;;;;;;1.17;0.30;;;20.70;99.90;;;;;;5051716;28;20098;-48
2022/07/11 11:56:36;;;;;;;1.15;0.30;;;20.80;99.90;;;;;;5069649;28;20393;-49
2022/07/11 11:59:12;;;;;;;0.38;0.20;;;20.90;99.90;;;;;;5066945;28;20094;-48
2022/07/11 12:01:42;;;;;;;1.88;0.50;;;20.90;99.90;;;;;;5070049;28;20491;-48
2022/07/11 12:04:12;;;;;;;1.33;0.57;;;20.80;99.90;;;;;;5076685;28;20044;-51
2022/07/11 12:06:40;;;;;;;1.95;0.60;;;20.80;99.90;;;;;;5073555;28;20128;-50
2022/07/11 12:09:09;;;;;;;1.23;0.40;;;20.80;99.90;;;;;;5069077;28;20070;-49
2022/07/11 12:11:36;;;;;;;2.63;0.43;;;20.70;99.90;;;;;;5072713;28;20048;-50
2022/07/11 12:14:06;;;;;;;3.15;0.50;;;20.80;99.90;;;;;;5071353;28;20044;-48
2022/07/11 12:16:43;;;;;;;1.15;0.30;;;21.00;99.90;;;;;;5072718;28;20075;-50
2022/07/11 12:19:11;;;;;;;0.20;0.20;;;21.10;99.90;;;;;;5072059;28;20131;-51
2022/07/11 12:21:39;;;;;;;2.08;0.30;;;21.20;99.90;;;;;;5071758;28;20048;-48
2022/07/11 12:24:08;;;;;;;0.90;0.30;;;21.40;99.90;;;;;;5056108;28;20049;-47
2022/07/11 12:26:37;;;;;;;0.82;0.30;;;21.40;99.90;;;;;;5073852;28;20147;-51
2022/07/11 12:29:19;;;;;;;0.70;0.20;;;21.40;99.90;;;;;;5073829;28;20124;-51
2022/07/11 12:31:59;;;;;;;0.28;0.20;;;21.40;99.90;;;;;;5071307;28;20043;-49
2022/07/11 12:34:31;;;;;;;0.82;0.40;;;21.50;99.90;;;;;;5073755;28;20044;-50
2022/07/11 12:37:07;;;;;;;1.27;0.40;;;21.40;99.90;;;;;;5073708;28;20476;-51
2022/07/11 12:39:35;;;;;;;1.13;0.45;;;21.50;99.90;;;;;;5073958;28;20032;-51
2022/07/11 12:42:19;;;;;;;2.22;0.50;;;21.50;99.90;;;;;;5072370;28;20341;-48
2022/07/11 12:45:07;;;;;;;1.30;0.47;;;21.30;99.90;;;;;;5073270;28;20051;-50
2022/07/11 12:47:39;;;;;;;0.98;0.40;;;21.20;99.90;;;;;;5073712;28;20048;-50
2022/07/11 12:50:25;;;;;;;2.17;0.50;;;21.30;99.90;;;;;;5074008;28;20081;-47
2022/07/11 12:52:56;;;;;;;2.28;0.30;;;21.20;99.90;;;;;;5067487;28;20040;-50
2022/07/11 12:55:35;;;;;;;0.22;0.20;;;21.10;99.90;;;;;;5071423;28;20060;-47
2022/07/11 12:58:14;;;;;;;0.50;0.20;;;21.00;99.90;;;;;;5067649;28;20441;-47
2022/07/11 13:00:56;;;;;;;1.05;0.40;;;21.10;99.90;;;;;;5068878;28;20059;-50
2022/07/11 13:03:35;;;;;;;0.50;0.20;;;21.10;99.90;;;;;;5065967;28;20041;-48